sensor_id;sensor_type;location;lat;lon;timestamp;pressure;altitude;pressure_sealevel;temperature;humidity
73821;BME280;62150;43.582;1.456;2023-09-08T05:18:00;100012.25;;;22.58;97.77
73821;BME280;62150;43.582;1.456;2023-09-08T05:20:28;100015.97;;;22.75;97.33
73821;BME280;62150;43.582;1.456;2023-09-08T05:22:56;100017.47;;;22.87;95.20
73821;BME280;62150;43.582;1.456;2023-09-08T05:25:23;100027.28;;;22.76;96.44
73821;BME280;62150;43.582;1.456;2023-09-08T05:27:51;100026.34;;;22.86;94.97
73821;BME280;62150;43.582;1.456;2023-09-08T05:30:18;100025.72;;;23.02;94.52
73821;BME280;62150;43.582;1.456;2023-09-08T05:32:46;100026.47;;;22.85;96.10
73821;BME280;62150;43.582;1.456;2023-09-08T05:35:16;100024.88;;;23.11;93.87
73821;BME280;62150;43.582;1.456;2023-09-08T05:37:43;100028.53;;;22.62;96.85
73821;BME280;62150;43.582;1.456;2023-09-08T05:40:11;100034.56;;;22.91;95.48
73821;BME280;62150;43.582;1.456;2023-09-08T05:42:38;100040.91;;;22.89;95.57
73821;BME280;62150;43.582;1.456;2023-09-08T05:45:06;100038.59;;;22.76;95.41
73821;BME280;62150;43.582;1.456;2023-09-08T05:47:34;100043.41;;;22.90;95.96
73821;BME280;62150;43.582;1.456;2023-09-08T05:50:02;100036.50;;;22.89;95.04
73821;BME280;62150;43.582;1.456;2023-09-08T05:52:31;100040.09;;;22.59;96.97
73821;BME280;62150;43.582;1.456;2023-09-08T05:54:59;100036.09;;;22.65;97.07
73821;BME280;62150;43.582;1.456;2023-09-08T05:57:27;100034.16;;;22.96;94.34
73821;BME280;62150;43.582;1.456;2023-09-08T05:59:54;100042.59;;;22.80;96.63
73821;BME280;62150;43.582;1.456;2023-09-08T06:02:22;100045.59;;;22.95;96.14
73821;BME280;62150;43.582;1.456;2023-09-08T06:04:49;100041.03;;;22.97;95.76
73821;BME280;62150;43.582;1.456;2023-09-08T06:07:17;100047.06;;;23.17;94.18
73821;BME280;62150;43.582;1.456;2023-09-08T06:09:46;100049.16;;;23.13;94.70
73821;BME280;62150;43.582;1.456;2023-09-08T06:12:13;100045.00;;;23.11;95.43
73821;BME280;62150;43.582;1.456;2023-09-08T06:14:41;100047.41;;;23.31;95.15
73821;BME280;62150;43.582;1.456;2023-09-08T06:17:09;100052.41;;;23.25;96.27
73821;BME280;62150;43.582;1.456;2023-09-08T06:19:36;100047.69;;;23.28;94.15
73821;BME280;62150;43.582;1.456;2023-09-08T06:22:04;100057.22;;;23.66;92.17
73821;BME280;62150;43.582;1.456;2023-09-08T06:24:31;100050.97;;;23.40;92.43
73821;BME280;62150;43.582;1.456;2023-09-08T06:27:02;100054.50;;;23.58;92.88
73821;BME280;62150;43.582;1.456;2023-09-08T06:29:29;100050.78;;;23.61;91.54
73821;BME280;62150;43.582;1.456;2023-09-08T06:31:57;100050.19;;;23.30;93.91
73821;BME280;62150;43.582;1.456;2023-09-08T06:34:24;100053.22;;;23.25;94.79
73821;BME280;62150;43.582;1.456;2023-09-08T06:36:52;100058.13;;;23.48;94.03
73821;BME280;62150;43.582;1.456;2023-09-08T06:39:19;100062.97;;;23.80;93.37
73821;BME280;62150;43.582;1.456;2023-09-08T06:41:47;100066.47;;;23.24;95.39
73821;BME280;62150;43.582;1.456;2023-09-08T06:44:16;100066.97;;;23.56;93.65
73821;BME280;62150;43.582;1.456;2023-09-08T06:46:43;100074.94;;;23.18;96.07
73821;BME280;62150;43.582;1.456;2023-09-08T06:49:11;100067.13;;;23.35;95.64
73821;BME280;62150;43.582;1.456;2023-09-08T06:51:38;100084.69;;;23.72;94.05
73821;BME280;62150;43.582;1.456;2023-09-08T06:54:06;100083.47;;;23.66;93.32
73821;BME280;62150;43.582;1.456;2023-09-08T06:56:36;100090.16;;;23.42;95.54
73821;BME280;62150;43.582;1.456;2023-09-08T06:59:03;100086.16;;;23.84;93.06
73821;BME280;62150;43.582;1.456;2023-09-08T07:01:33;100081.44;;;23.51;95.87
73821;BME280;62150;43.582;1.456;2023-09-08T07:04:01;100085.13;;;23.67;94.22
73821;BME280;62150;43.582;1.456;2023-09-08T07:06:28;100075.66;;;23.84;94.60
73821;BME280;62150;43.582;1.456;2023-09-08T07:08:56;100082.53;;;23.58;95.35
73821;BME280;62150;43.582;1.456;2023-09-08T07:11:23;100083.91;;;23.62;96.29
73821;BME280;62150;43.582;1.456;2023-09-08T07:13:51;100075.44;;;23.68;93.68
73821;BME280;62150;43.582;1.456;2023-09-08T07:16:18;100087.97;;;24.01;93.62
73821;BME280;62150;43.582;1.456;2023-09-08T07:18:48;100078.53;;;24.09;91.61
73821;BME280;62150;43.582;1.456;2023-09-08T07:21:16;100072.53;;;23.98;93.59
73821;BME280;62150;43.582;1.456;2023-09-08T07:23:43;100075.16;;;23.98;93.52
73821;BME280;62150;43.582;1.456;2023-09-08T07:26:11;100073.09;;;24.20;92.91
73821;BME280;62150;43.582;1.456;2023-09-08T07:28:38;100077.09;;;24.42;90.97
73821;BME280;62150;43.582;1.456;2023-09-08T07:31:06;100072.06;;;24.48;91.33
73821;BME280;62150;43.582;1.456;2023-09-08T07:33:35;100073.34;;;24.44;91.22
73821;BME280;62150;43.582;1.456;2023-09-08T07:36:08;100080.78;;;24.49;90.41
73821;BME280;62150;43.582;1.456;2023-09-08T07:38:35;100083.09;;;24.69;88.95
73821;BME280;62150;43.582;1.456;2023-09-08T07:41:03;100083.09;;;24.52;90.25
73821;BME280;62150;43.582;1.456;2023-09-08T07:43:30;100083.81;;;24.97;87.88
73821;BME280;62150;43.582;1.456;2023-09-08T07:45:58;100088.69;;;24.92;88.83
73821;BME280;62150;43.582;1.456;2023-09-08T07:48:25;100084.78;;;24.96;86.73
73821;BME280;62150;43.582;1.456;2023-09-08T07:50:53;100090.06;;;25.22;84.54
73821;BME280;62150;43.582;1.456;2023-09-08T07:53:22;100089.28;;;25.04;87.42
73821;BME280;62150;43.582;1.456;2023-09-08T07:55:49;100089.78;;;25.25;83.91
73821;BME280;62150;43.582;1.456;2023-09-08T07:58:17;100084.88;;;25.38;82.48
73821;BME280;62150;43.582;1.456;2023-09-08T08:00:45;100082.56;;;25.35;84.27
73821;BME280;62150;43.582;1.456;2023-09-08T08:03:12;100075.28;;;25.55;82.08
73821;BME280;62150;43.582;1.456;2023-09-08T08:05:40;100081.06;;;25.59;81.96
73821;BME280;62150;43.582;1.456;2023-09-08T08:08:07;100079.78;;;25.63;79.92
73821;BME280;62150;43.582;1.456;2023-09-08T08:10:37;100085.13;;;25.79;77.15
73821;BME280;62150;43.582;1.456;2023-09-08T08:13:04;100081.97;;;25.76;78.40
73821;BME280;62150;43.582;1.456;2023-09-08T08:15:37;100085.69;;;26.07;76.57
73821;BME280;62150;43.582;1.456;2023-09-08T08:18:06;100090.81;;;26.17;74.61
73821;BME280;62150;43.582;1.456;2023-09-08T08:20:34;100100.34;;;26.10;75.24
73821;BME280;62150;43.582;1.456;2023-09-08T08:23:01;100105.47;;;26.19;75.49
73821;BME280;62150;43.582;1.456;2023-09-08T08:25:30;100102.03;;;26.19;73.95
73821;BME280;62150;43.582;1.456;2023-09-08T08:28:00;100096.16;;;26.41;71.79
73821;BME280;62150;43.582;1.456;2023-09-08T08:30:29;100084.63;;;26.42;75.48
73821;BME280;62150;43.582;1.456;2023-09-08T08:32:56;100088.41;;;26.72;67.82
73821;BME280;62150;43.582;1.456;2023-09-08T08:35:25;100090.09;;;26.65;69.72
73821;BME280;62150;43.582;1.456;2023-09-08T08:37:53;100091.59;;;26.67;70.81
73821;BME280;62150;43.582;1.456;2023-09-08T08:40:20;100089.91;;;26.91;70.89
73821;BME280;62150;43.582;1.456;2023-09-08T08:42:55;100095.50;;;27.12;64.55
73821;BME280;62150;43.582;1.456;2023-09-08T08:45:25;100100.78;;;27.04;68.01
73821;BME280;62150;43.582;1.456;2023-09-08T08:47:57;100089.38;;;27.28;64.15
73821;BME280;62150;43.582;1.456;2023-09-08T08:50:25;100102.75;;;27.26;66.02
73821;BME280;62150;43.582;1.456;2023-09-08T08:52:53;100097.81;;;27.15;67.55
73821;BME280;62150;43.582;1.456;2023-09-08T08:55:21;100102.00;;;27.57;63.73
73821;BME280;62150;43.582;1.456;2023-09-08T08:57:49;100103.81;;;27.56;63.23
73821;BME280;62150;43.582;1.456;2023-09-08T09:00:17;100106.03;;;27.84;60.70
73821;BME280;62150;43.582;1.456;2023-09-08T09:02:47;100101.88;;;27.89;61.40
73821;BME280;62150;43.582;1.456;2023-09-08T09:05:16;100103.09;;;27.79;62.24
73821;BME280;62150;43.582;1.456;2023-09-08T09:07:48;100094.41;;;27.70;63.77
73821;BME280;62150;43.582;1.456;2023-09-08T09:10:15;100094.41;;;28.01;59.24
73821;BME280;62150;43.582;1.456;2023-09-08T09:12:43;100098.06;;;28.31;59.78
73821;BME280;62150;43.582;1.456;2023-09-08T09:15:10;100095.94;;;27.95;61.10
73821;BME280;62150;43.582;1.456;2023-09-08T09:17:39;100092.81;;;28.23;62.70
73821;BME280;62150;43.582;1.456;2023-09-08T09:20:15;100089.00;;;28.25;62.03
73821;BME280;62150;43.582;1.456;2023-09-08T09:22:44;100088.69;;;28.43;58.82
73821;BME280;62150;43.582;1.456;2023-09-08T09:25:21;100087.72;;;28.44;57.62
73821;BME280;62150;43.582;1.456;2023-09-08T09:27:53;100088.47;;;28.76;58.25
73821;BME280;62150;43.582;1.456;2023-09-08T09:30:22;100094.59;;;28.53;56.77
73821;BME280;62150;43.582;1.456;2023-09-08T09:32:58;100081.44;;;28.68;55.70
73821;BME280;62150;43.582;1.456;2023-09-08T09:35:40;100092.19;;;28.66;57.77
73821;BME280;62150;43.582;1.456;2023-09-08T09:38:08;100080.41;;;28.92;52.92
73821;BME280;62150;43.582;1.456;2023-09-08T09:40:36;100089.91;;;29.01;53.14
73821;BME280;62150;43.582;1.456;2023-09-08T09:43:05;100078.78;;;29.20;50.91
73821;BME280;62150;43.582;1.456;2023-09-08T09:45:37;100084.38;;;29.25;50.71
73821;BME280;62150;43.582;1.456;2023-09-08T09:48:06;100079.34;;;29.30;48.78
73821;BME280;62150;43.582;1.456;2023-09-08T09:50:36;100073.97;;;29.39;48.96
73821;BME280;62150;43.582;1.456;2023-09-08T09:53:09;100071.06;;;29.63;47.12
73821;BME280;62150;43.582;1.456;2023-09-08T09:55:37;100077.34;;;29.62;50.42
73821;BME280;62150;43.582;1.456;2023-09-08T09:58:06;100072.25;;;29.31;48.83
73821;BME280;62150;43.582;1.456;2023-09-08T10:00:34;100070.53;;;29.89;48.93
73821;BME280;62150;43.582;1.456;2023-09-08T10:03:04;100065.88;;;29.91;49.16
73821;BME280;62150;43.582;1.456;2023-09-08T10:05:32;100062.84;;;30.30;46.35
73821;BME280;62150;43.582;1.456;2023-09-08T10:08:01;100063.69;;;29.94;47.12
73821;BME280;62150;43.582;1.456;2023-09-08T10:10:30;100061.09;;;29.80;46.42
73821;BME280;62150;43.582;1.456;2023-09-08T10:13:05;100055.66;;;30.03;46.17
73821;BME280;62150;43.582;1.456;2023-09-08T10:15:34;100057.31;;;30.46;43.58
73821;BME280;62150;43.582;1.456;2023-09-08T10:18:05;100062.16;;;30.43;45.57
73821;BME280;62150;43.582;1.456;2023-09-08T10:20:34;100060.47;;;30.35;44.26
73821;BME280;62150;43.582;1.456;2023-09-08T10:23:07;100048.59;;;30.31;44.32
73821;BME280;62150;43.582;1.456;2023-09-08T10:25:43;100063.38;;;30.61;42.41
73821;BME280;62150;43.582;1.456;2023-09-08T10:28:13;100053.66;;;30.47;42.72
73821;BME280;62150;43.582;1.456;2023-09-08T10:30:41;100050.75;;;30.42;42.77
73821;BME280;62150;43.582;1.456;2023-09-08T10:33:09;100051.88;;;30.76;42.60
73821;BME280;62150;43.582;1.456;2023-09-08T10:35:37;100042.72;;;30.85;42.56
73821;BME280;62150;43.582;1.456;2023-09-08T10:38:25;100048.28;;;30.90;41.79
73821;BME280;62150;43.582;1.456;2023-09-08T10:40:53;100045.34;;;30.78;43.09
73821;BME280;62150;43.582;1.456;2023-09-08T10:43:21;100047.16;;;31.06;41.84
73821;BME280;62150;43.582;1.456;2023-09-08T10:45:51;100033.31;;;31.10;41.07
73821;BME280;62150;43.582;1.456;2023-09-08T10:48:20;100043.81;;;31.25;40.84
73821;BME280;62150;43.582;1.456;2023-09-08T10:50:47;100040.84;;;31.41;41.03
73821;BME280;62150;43.582;1.456;2023-09-08T10:53:16;100036.72;;;31.32;41.32
73821;BME280;62150;43.582;1.456;2023-09-08T10:55:46;100033.25;;;31.73;40.11
73821;BME280;62150;43.582;1.456;2023-09-08T10:58:20;100033.59;;;31.63;39.46
73821;BME280;62150;43.582;1.456;2023-09-08T11:00:51;100024.59;;;31.64;40.32
73821;BME280;62150;43.582;1.456;2023-09-08T11:03:43;100033.69;;;31.83;39.21
73821;BME280;62150;43.582;1.456;2023-09-08T11:06:14;100033.53;;;32.11;40.41
73821;BME280;62150;43.582;1.456;2023-09-08T11:08:43;100033.09;;;32.01;39.01
73821;BME280;62150;43.582;1.456;2023-09-08T11:11:15;100015.69;;;31.91;39.42
73821;BME280;62150;43.582;1.456;2023-09-08T11:13:42;100024.78;;;32.23;39.28
73821;BME280;62150;43.582;1.456;2023-09-08T11:16:12;100021.09;;;32.18;39.06
73821;BME280;62150;43.582;1.456;2023-09-08T11:18:40;100015.09;;;31.89;38.97
73821;BME280;62150;43.582;1.456;2023-09-08T11:21:09;100025.19;;;32.27;38.31
73821;BME280;62150;43.582;1.456;2023-09-08T11:23:37;100015.41;;;32.47;38.83
73821;BME280;62150;43.582;1.456;2023-09-08T11:26:06;100016.59;;;32.64;37.57
73821;BME280;62150;43.582;1.456;2023-09-08T11:28:36;100005.38;;;32.43;37.84
73821;BME280;62150;43.582;1.456;2023-09-08T11:31:05;100008.78;;;32.96;37.02
73821;BME280;62150;43.582;1.456;2023-09-08T11:33:34;100007.41;;;32.41;37.95
73821;BME280;62150;43.582;1.456;2023-09-08T11:36:12;100004.28;;;32.96;36.96
73821;BME280;62150;43.582;1.456;2023-09-08T11:38:43;99996.75;;;32.80;37.75
73821;BME280;62150;43.582;1.456;2023-09-08T11:41:11;99997.72;;;33.06;36.53
73821;BME280;62150;43.582;1.456;2023-09-08T11:43:40;100000.00;;;32.95;37.20
73821;BME280;62150;43.582;1.456;2023-09-08T11:46:08;99990.22;;;33.47;36.09
73821;BME280;62150;43.582;1.456;2023-09-08T11:48:36;99990.50;;;33.71;35.34
73821;BME280;62150;43.582;1.456;2023-09-08T11:51:07;99977.72;;;33.48;35.88
73821;BME280;62150;43.582;1.456;2023-09-08T11:53:36;99988.59;;;33.78;37.61
73821;BME280;62150;43.582;1.456;2023-09-08T11:56:04;99984.31;;;33.83;35.37
73821;BME280;62150;43.582;1.456;2023-09-08T11:58:33;99977.47;;;33.56;36.59
73821;BME280;62150;43.582;1.456;2023-09-08T12:01:02;99982.72;;;33.69;36.40
73821;BME280;62150;43.582;1.456;2023-09-08T12:03:31;99983.94;;;34.05;36.35
73821;BME280;62150;43.582;1.456;2023-09-08T12:05:58;99980.31;;;34.24;36.14
73821;BME280;62150;43.582;1.456;2023-09-08T12:08:28;99980.31;;;34.24;35.67
73821;BME280;62150;43.582;1.456;2023-09-08T12:10:55;99984.59;;;34.00;35.29
73821;BME280;62150;43.582;1.456;2023-09-08T12:13:23;99981.00;;;33.88;35.58
73821;BME280;62150;43.582;1.456;2023-09-08T12:15:51;99976.81;;;33.99;35.49
73821;BME280;62150;43.582;1.456;2023-09-08T12:18:37;99975.91;;;34.11;34.94
73821;BME280;62150;43.582;1.456;2023-09-08T12:21:05;99968.63;;;34.50;34.47
73821;BME280;62150;43.582;1.456;2023-09-08T12:23:33;99957.56;;;34.46;34.88
73821;BME280;62150;43.582;1.456;2023-09-08T12:26:01;99974.56;;;34.70;34.99
73821;BME280;62150;43.582;1.456;2023-09-08T12:28:31;99956.38;;;35.04;34.06
73821;BME280;62150;43.582;1.456;2023-09-08T12:30:59;99960.63;;;34.68;34.11
73821;BME280;62150;43.582;1.456;2023-09-08T12:33:28;99964.06;;;34.32;34.71
73821;BME280;62150;43.582;1.456;2023-09-08T12:35:56;99960.47;;;34.88;34.21
73821;BME280;62150;43.582;1.456;2023-09-08T12:38:32;99951.81;;;34.49;33.79
73821;BME280;62150;43.582;1.456;2023-09-08T12:40:59;99952.66;;;35.05;33.68
73821;BME280;62150;43.582;1.456;2023-09-08T12:43:27;99950.38;;;34.90;33.95
73821;BME280;62150;43.582;1.456;2023-09-08T12:45:54;99941.91;;;35.11;33.11
73821;BME280;62150;43.582;1.456;2023-09-08T12:48:22;99939.97;;;35.00;33.15
73821;BME280;62150;43.582;1.456;2023-09-08T12:50:51;99945.31;;;35.00;32.77
73821;BME280;62150;43.582;1.456;2023-09-08T12:53:19;99935.47;;;35.49;31.74
73821;BME280;62150;43.582;1.456;2023-09-08T12:55:49;99934.03;;;35.35;32.44
73821;BME280;62150;43.582;1.456;2023-09-08T12:58:16;99926.75;;;34.50;32.06
73821;BME280;62150;43.582;1.456;2023-09-08T13:00:44;99925.00;;;34.99;32.17
73821;BME280;62150;43.582;1.456;2023-09-08T13:03:12;99914.00;;;35.07;32.14
73821;BME280;62150;43.582;1.456;2023-09-08T13:05:39;99924.72;;;35.37;33.19
73821;BME280;62150;43.582;1.456;2023-09-08T13:08:08;99908.34;;;35.75;31.84
73821;BME280;62150;43.582;1.456;2023-09-08T13:10:37;99922.28;;;35.77;32.04
73821;BME280;62150;43.582;1.456;2023-09-08T13:13:05;99910.63;;;36.25;31.30
73821;BME280;62150;43.582;1.456;2023-09-08T13:15:32;99911.69;;;36.01;30.50
73821;BME280;62150;43.582;1.456;2023-09-08T13:18:00;99901.44;;;36.68;30.40
73821;BME280;62150;43.582;1.456;2023-09-08T13:20:27;99900.78;;;36.37;30.61
73821;BME280;62150;43.582;1.456;2023-09-08T13:22:55;99897.94;;;36.09;30.80
73821;BME280;62150;43.582;1.456;2023-09-08T13:25:24;99894.22;;;36.21;30.38
73821;BME280;62150;43.582;1.456;2023-09-08T13:27:51;99873.78;;;36.04;30.25
73821;BME280;62150;43.582;1.456;2023-09-08T13:30:19;99882.97;;;36.31;30.33
73821;BME280;62150;43.582;1.456;2023-09-08T13:32:48;99879.00;;;36.10;30.37
73821;BME280;62150;43.582;1.456;2023-09-08T13:35:15;99875.75;;;36.32;30.18
73821;BME280;62150;43.582;1.456;2023-09-08T13:37:43;99880.81;;;36.68;29.45
73821;BME280;62150;43.582;1.456;2023-09-08T13:40:11;99873.13;;;36.72;29.49
73821;BME280;62150;43.582;1.456;2023-09-08T13:42:40;99880.63;;;36.46;29.76
73821;BME280;62150;43.582;1.456;2023-09-08T13:45:08;99872.44;;;36.76;29.46
73821;BME280;62150;43.582;1.456;2023-09-08T13:47:36;99861.97;;;36.63;28.18
73821;BME280;62150;43.582;1.456;2023-09-08T13:50:05;99868.50;;;36.67;27.83
73821;BME280;62150;43.582;1.456;2023-09-08T13:52:33;99865.22;;;36.65;28.59
73821;BME280;62150;43.582;1.456;2023-09-08T13:55:00;99867.69;;;36.67;27.67
73821;BME280;62150;43.582;1.456;2023-09-08T13:57:29;99847.16;;;37.41;28.44
73821;BME280;62150;43.582;1.456;2023-09-08T13:59:58;99852.34;;;37.31;28.17
73821;BME280;62150;43.582;1.456;2023-09-08T14:02:26;99852.25;;;37.26;27.81
73821;BME280;62150;43.582;1.456;2023-09-08T14:04:53;99852.22;;;36.97;27.97
73821;BME280;62150;43.582;1.456;2023-09-08T14:07:21;99848.97;;;36.95;28.05
73821;BME280;62150;43.582;1.456;2023-09-08T14:09:48;99845.72;;;37.67;26.99
73821;BME280;62150;43.582;1.456;2023-09-08T14:12:16;99851.41;;;36.97;27.49
73821;BME280;62150;43.582;1.456;2023-09-08T14:14:43;99850.63;;;36.84;27.10
73821;BME280;62150;43.582;1.456;2023-09-08T14:17:12;99844.69;;;37.22;27.36
73821;BME280;62150;43.582;1.456;2023-09-08T14:19:40;99855.84;;;37.19;26.62
73821;BME280;62150;43.582;1.456;2023-09-08T14:22:07;99844.88;;;37.33;27.09
73821;BME280;62150;43.582;1.456;2023-09-08T14:24:35;99850.31;;;37.38;26.22
73821;BME280;62150;43.582;1.456;2023-09-08T14:27:02;99855.09;;;37.36;26.72
73821;BME280;62150;43.582;1.456;2023-09-08T14:29:32;99842.44;;;37.81;25.90
73821;BME280;62150;43.582;1.456;2023-09-08T14:32:09;99840.50;;;37.94;26.38
73821;BME280;62150;43.582;1.456;2023-09-08T14:34:38;99843.22;;;37.77;25.58
73821;BME280;62150;43.582;1.456;2023-09-08T14:37:05;99843.66;;;37.57;25.69
73821;BME280;62150;43.582;1.456;2023-09-08T14:39:33;99835.91;;;38.11;25.27
73821;BME280;62150;43.582;1.456;2023-09-08T14:42:00;99834.00;;;37.89;26.10
73821;BME280;62150;43.582;1.456;2023-09-08T14:44:28;99836.88;;;37.66;25.13
73821;BME280;62150;43.582;1.456;2023-09-08T14:46:55;99841.28;;;37.44;26.25
73821;BME280;62150;43.582;1.456;2023-09-08T14:49:23;99841.69;;;37.36;25.71
73821;BME280;62150;43.582;1.456;2023-09-08T14:51:52;99835.81;;;37.67;24.94
73821;BME280;62150;43.582;1.456;2023-09-08T14:54:19;99829.81;;;37.77;25.56
73821;BME280;62150;43.582;1.456;2023-09-08T14:56:47;99832.75;;;37.30;24.77
73821;BME280;62150;43.582;1.456;2023-09-08T14:59:16;99829.59;;;37.50;25.39
73821;BME280;62150;43.582;1.456;2023-09-08T15:01:43;99830.34;;;37.96;24.23
73821;BME280;62150;43.582;1.456;2023-09-08T15:04:11;99836.91;;;38.05;24.42
73821;BME280;62150;43.582;1.456;2023-09-08T15:06:38;99830.03;;;37.42;25.74
73821;BME280;62150;43.582;1.456;2023-09-08T15:09:07;99834.00;;;37.39;24.96
73821;BME280;62150;43.582;1.456;2023-09-08T15:11:35;99832.59;;;37.53;24.54
73821;BME280;62150;43.582;1.456;2023-09-08T15:14:04;99833.03;;;37.17;24.68
73821;BME280;62150;43.582;1.456;2023-09-08T15:16:31;99828.78;;;37.33;24.64
73821;BME280;62150;43.582;1.456;2023-09-08T15:18:59;99831.31;;;37.39;24.56
73821;BME280;62150;43.582;1.456;2023-09-08T15:21:26;99823.91;;;37.80;24.86
73821;BME280;62150;43.582;1.456;2023-09-08T15:23:56;99833.19;;;36.82;25.33
73821;BME280;62150;43.582;1.456;2023-09-08T15:26:25;99829.75;;;37.60;24.42
73821;BME280;62150;43.582;1.456;2023-09-08T15:28:52;99833.34;;;37.82;24.51
73821;BME280;62150;43.582;1.456;2023-09-08T15:31:20;99824.47;;;37.82;24.33
73821;BME280;62150;43.582;1.456;2023-09-08T15:33:48;99825.59;;;38.03;23.12
73821;BME280;62150;43.582;1.456;2023-09-08T15:36:17;99811.41;;;37.52;24.54
73821;BME280;62150;43.582;1.456;2023-09-08T15:38:45;99815.53;;;38.10;24.16
73821;BME280;62150;43.582;1.456;2023-09-08T15:41:16;99816.28;;;38.49;23.40
73821;BME280;62150;43.582;1.456;2023-09-08T15:43:48;99811.41;;;37.52;24.35
73821;BME280;62150;43.582;1.456;2023-09-08T15:46:17;99815.78;;;37.24;24.08
73821;BME280;62150;43.582;1.456;2023-09-08T15:48:45;99812.63;;;37.61;23.58
73821;BME280;62150;43.582;1.456;2023-09-08T15:51:15;99818.78;;;37.28;24.51
73821;BME280;62150;43.582;1.456;2023-09-08T15:53:43;99811.41;;;37.52;24.58
73821;BME280;62150;43.582;1.456;2023-09-08T15:56:10;99811.69;;;37.05;24.60
73821;BME280;62150;43.582;1.456;2023-09-08T15:58:38;99811.88;;;37.82;24.00
73821;BME280;62150;43.582;1.456;2023-09-08T16:01:07;99809.44;;;37.47;24.82
73821;BME280;62150;43.582;1.456;2023-09-08T16:03:35;99812.19;;;38.03;24.02
73821;BME280;62150;43.582;1.456;2023-09-08T16:06:03;99817.81;;;37.34;24.75
73821;BME280;62150;43.582;1.456;2023-09-08T16:08:30;99811.97;;;37.20;23.71
73821;BME280;62150;43.582;1.456;2023-09-08T16:11:00;99812.16;;;37.19;24.60
73821;BME280;62150;43.582;1.456;2023-09-08T16:13:29;99809.66;;;36.84;24.88
73821;BME280;62150;43.582;1.456;2023-09-08T16:15:57;99811.91;;;37.04;24.18
73821;BME280;62150;43.582;1.456;2023-09-08T16:18:26;99809.22;;;37.49;23.80
73821;BME280;62150;43.582;1.456;2023-09-08T16:20:53;99812.78;;;37.38;23.83
73821;BME280;62150;43.582;1.456;2023-09-08T16:23:21;99818.00;;;36.99;24.09
73821;BME280;62150;43.582;1.456;2023-09-08T16:25:48;99812.72;;;37.33;24.25
73821;BME280;62150;43.582;1.456;2023-09-08T16:28:17;99821.69;;;36.70;24.40
73821;BME280;62150;43.582;1.456;2023-09-08T16:30:44;99825.34;;;36.40;24.73
73821;BME280;62150;43.582;1.456;2023-09-08T16:33:12;99826.78;;;36.31;25.00
73821;BME280;62150;43.582;1.456;2023-09-08T16:35:42;99823.44;;;37.04;24.22
73821;BME280;62150;43.582;1.456;2023-09-08T16:38:09;99821.13;;;36.68;25.31
73821;BME280;62150;43.582;1.456;2023-09-08T16:40:38;99829.50;;;36.59;24.85
73821;BME280;62150;43.582;1.456;2023-09-08T16:43:06;99833.13;;;35.72;25.40
73821;BME280;62150;43.582;1.456;2023-09-08T16:45:33;99827.38;;;35.98;25.15
73821;BME280;62150;43.582;1.456;2023-09-08T16:48:05;99831.47;;;36.76;25.36
73821;BME280;62150;43.582;1.456;2023-09-08T16:50:32;99838.53;;;36.18;25.32
73821;BME280;62150;43.582;1.456;2023-09-08T16:53:01;99826.78;;;36.83;24.87
73821;BME280;62150;43.582;1.456;2023-09-08T16:55:29;99845.97;;;35.40;25.53
73821;BME280;62150;43.582;1.456;2023-09-08T16:57:56;99847.88;;;35.51;25.48
73821;BME280;62150;43.582;1.456;2023-09-08T17:00:24;99845.97;;;34.98;25.45
73821;BME280;62150;43.582;1.456;2023-09-08T17:02:51;99841.78;;;36.09;24.93
73821;BME280;62150;43.582;1.456;2023-09-08T17:05:19;99852.84;;;36.01;25.10
73821;BME280;62150;43.582;1.456;2023-09-08T17:07:46;99849.16;;;35.18;25.22
73821;BME280;62150;43.582;1.456;2023-09-08T17:10:15;99859.88;;;35.72;25.35
73821;BME280;62150;43.582;1.456;2023-09-08T17:12:43;99853.97;;;34.98;26.46
73821;BME280;62150;43.582;1.456;2023-09-08T17:15:11;99856.66;;;34.61;26.20
73821;BME280;62150;43.582;1.456;2023-09-08T17:17:38;99862.81;;;34.80;26.20
73821;BME280;62150;43.582;1.456;2023-09-08T17:20:07;99863.56;;;34.26;27.27
73821;BME280;62150;43.582;1.456;2023-09-08T17:22:35;99858.28;;;34.81;26.44
73821;BME280;62150;43.582;1.456;2023-09-08T17:25:02;99858.78;;;34.53;26.89
73821;BME280;62150;43.582;1.456;2023-09-08T17:27:31;99861.00;;;34.38;27.13
73821;BME280;62150;43.582;1.456;2023-09-08T17:29:59;99854.00;;;34.18;27.21
73821;BME280;62150;43.582;1.456;2023-09-08T17:32:27;99857.81;;;34.04;27.58
73821;BME280;62150;43.582;1.456;2023-09-08T17:34:54;99856.94;;;33.60;27.28
73821;BME280;62150;43.582;1.456;2023-09-08T17:37:22;99854.25;;;33.92;28.07
73821;BME280;62150;43.582;1.456;2023-09-08T17:39:50;99861.00;;;33.63;28.38
73821;BME280;62150;43.582;1.456;2023-09-08T17:42:17;99852.97;;;33.00;29.07
73821;BME280;62150;43.582;1.456;2023-09-08T17:44:46;99850.22;;;32.82;28.81
73821;BME280;62150;43.582;1.456;2023-09-08T17:47:14;99843.78;;;33.34;29.04
73821;BME280;62150;43.582;1.456;2023-09-08T17:49:41;99851.63;;;33.60;28.02
73821;BME280;62150;43.582;1.456;2023-09-08T17:52:09;99845.34;;;33.10;28.99
73821;BME280;62150;43.582;1.456;2023-09-08T17:54:37;99845.78;;;32.56;30.02
73821;BME280;62150;43.582;1.456;2023-09-08T17:57:04;99845.91;;;32.68;29.10
73821;BME280;62150;43.582;1.456;2023-09-08T17:59:32;99849.28;;;32.43;29.68
73821;BME280;62150;43.582;1.456;2023-09-08T18:02:10;99848.81;;;32.59;29.91
73821;BME280;62150;43.582;1.456;2023-09-08T18:04:39;99857.06;;;32.38;30.64
73821;BME280;62150;43.582;1.456;2023-09-08T18:07:07;99865.28;;;32.04;30.48
73821;BME280;62150;43.582;1.456;2023-09-08T18:09:35;99857.09;;;32.12;31.02
73821;BME280;62150;43.582;1.456;2023-09-08T18:12:04;99863.31;;;32.70;30.66
73821;BME280;62150;43.582;1.456;2023-09-08T18:14:37;99862.94;;;32.60;30.08
73821;BME280;62150;43.582;1.456;2023-09-08T18:17:04;99865.06;;;32.31;30.46
73821;BME280;62150;43.582;1.456;2023-09-08T18:19:35;99875.88;;;32.43;30.39